Terminal Aerodrome Forecast
Issued by NWS

Home | Current Version | Previous Version | Text Only | Print | Product List | Glossary On
Versions: 1 2 3 4 5 6 7 8 9 10 11 12 13
000
FTUS46 KSGX 230900 AAA
TAFTRM
TAF AMD
KTRM 230925Z 2309/2406 32015G25KT P6SM SKC
     FM231200 33010KT P6SM SKC
     FM232200 VRB05KT P6SM SKC=

USA.gov is the U.S. government's official web portal to all federal, state and local government web resources and services.